Time;durP1;ratioP1;P1;durP2;ratioP2;P2;SDS_P1;SDS_P2;PMS_P1;PMS_P2;Temp;Humidity;BMP_temperature;BMP_pressure;BME280_temperature;BME280_humidity;BME280_pressure;Samples;Min_cycle;Max_cycle;Signal;HPM_P1;HPM_P2
2020/12/20 00:01:40;;;;;;;13.32;9.00;;;;;;;7.96;100.00;100927.91;10133925;29;20116;-71
2020/12/20 00:06:43;;;;;;;10.73;9.07;;;;;;;8.09;100.00;100928.44;10133228;29;20510;-71
2020/12/20 00:11:47;;;;;;;12.57;10.38;;;;;;;8.13;100.00;100940.53;10133660;29;20069;-71
2020/12/20 00:16:48;;;;;;;12.82;9.55;;;;;;;8.20;100.00;100935.06;10117770;29;20057;-71
2020/12/20 00:22:00;;;;;;;12.35;10.00;;;;;;;7.89;100.00;100923.75;10133036;29;20052;-71
2020/12/20 00:27:03;;;;;;;12.27;9.30;;;;;;;7.83;100.00;100927.41;10130957;29;20115;-71
2020/12/20 00:32:06;;;;;;;11.48;8.77;;;;;;;7.84;100.00;100931.75;10117901;29;20056;-71
2020/12/20 00:37:08;;;;;;;12.55;10.88;;;;;;;7.78;100.00;100937.19;10134326;29;20048;-71
2020/12/20 00:42:09;;;;;;;13.75;12.18;;;;;;;7.78;100.00;100941.56;10134811;29;20445;-71
2020/12/20 00:47:10;;;;;;;12.05;10.23;;;;;;;7.73;100.00;100944.28;10134581;29;20512;-71
2020/12/20 00:52:11;;;;;;;14.05;11.32;;;;;;;7.70;100.00;100954.84;10134616;29;20048;-71
2020/12/20 00:57:13;;;;;;;14.73;10.73;;;;;;;7.69;100.00;100947.03;10117718;29;20052;-71
2020/12/20 01:02:14;;;;;;;12.98;11.15;;;;;;;7.62;100.00;100960.31;10117507;29;20081;-71
2020/12/20 01:07:16;;;;;;;16.13;11.90;;;;;;;7.60;100.00;100975.25;10133106;29;20053;-71
2020/12/20 01:12:23;;;;;;;14.60;12.38;;;;;;;7.67;100.00;100968.06;10119350;29;20074;-71
2020/12/20 01:17:40;;;;;;;15.63;12.07;;;;;;;7.78;100.00;100984.38;10123677;29;20499;-71
2020/12/20 01:22:46;;;;;;;14.13;11.15;;;;;;;7.81;100.00;100980.78;10124078;29;20489;-71
2020/12/20 01:27:47;;;;;;;13.95;11.45;;;;;;;7.82;100.00;100988.63;10124338;29;20052;-71
2020/12/20 01:32:49;;;;;;;16.60;12.32;;;;;;;7.82;100.00;100987.75;10123223;29;20064;-71
2020/12/20 01:37:50;;;;;;;15.10;12.32;;;;;;;7.85;100.00;100980.69;10140542;29;20044;-71
2020/12/20 01:42:55;;;;;;;15.73;11.65;;;;;;;7.95;100.00;100984.75;10124391;29;20060;-71
2020/12/20 01:48:03;;;;;;;13.55;10.90;;;;;;;8.14;100.00;100998.22;10123031;29;20057;-71
2020/12/20 01:53:14;;;;;;;15.55;11.25;;;;;;;8.19;100.00;100985.88;10138465;29;20079;-71
2020/12/20 01:58:20;;;;;;;14.90;11.73;;;;;;;8.18;100.00;100983.28;10137690;29;20087;-71
2020/12/20 02:03:34;;;;;;;12.45;10.40;;;;;;;8.19;100.00;100974.50;10122259;29;20049;-71
2020/12/20 02:08:37;;;;;;;13.82;11.40;;;;;;;8.03;100.00;100971.44;10127317;29;20049;-71
2020/12/20 02:13:42;;;;;;;11.73;9.88;;;;;;;7.99;100.00;100972.44;10122438;29;20060;-71
2020/12/20 02:18:44;;;;;;;15.20;11.45;;;;;;;8.12;100.00;100978.22;10128976;29;20085;-71
2020/12/20 02:23:50;;;;;;;13.77;9.65;;;;;;;8.19;100.00;100964.00;10129456;29;20060;-71
2020/12/20 02:28:56;;;;;;;14.15;9.63;;;;;;;8.25;100.00;100971.69;10122323;29;20065;-71
2020/12/20 02:34:00;;;;;;;13.23;10.10;;;;;;;8.18;100.00;100963.16;10121874;29;20381;-71
2020/12/20 02:39:04;;;;;;;12.20;9.10;;;;;;;8.22;100.00;100972.63;10135239;29;20060;-72
2020/12/20 02:44:12;;;;;;;12.68;9.30;;;;;;;8.26;100.00;100974.28;10121621;29;20442;-71
2020/12/20 02:49:17;;;;;;;12.95;8.55;;;;;;;8.30;100.00;100980.28;10110640;29;20135;-72
2020/12/20 02:54:21;;;;;;;10.43;7.57;;;;;;;8.30;100.00;100969.78;10133038;29;20048;-71
2020/12/20 02:59:23;;;;;;;11.27;8.70;;;;;;;8.24;100.00;100964.72;10112963;29;20536;-71
2020/12/20 03:04:24;;;;;;;11.52;9.40;;;;;;;8.27;100.00;100967.28;10154116;29;20096;-71
2020/12/20 03:09:26;;;;;;;9.52;6.50;;;;;;;8.23;100.00;100966.47;10120482;29;20416;-71
2020/12/20 03:14:28;;;;;;;9.25;7.05;;;;;;;8.11;100.00;100966.00;10119730;29;20059;-71
2020/12/20 03:19:34;;;;;;;12.68;9.65;;;;;;;8.14;100.00;100958.88;10119829;29;20076;-72
2020/12/20 03:24:36;;;;;;;10.80;8.25;;;;;;;8.23;100.00;100974.34;10119237;29;20059;-71
2020/12/20 03:30:07;;;;;;;8.57;7.53;;;;;;;8.28;100.00;100974.25;10119892;29;20135;-71
2020/12/20 03:35:20;;;;;;;11.32;9.73;;;;;;;8.17;100.00;100973.69;10117911;29;20458;-71
2020/12/20 03:40:33;;;;;;;12.38;9.13;;;;;;;8.19;100.00;100979.75;10134658;29;20040;-72
2020/12/20 03:45:34;;;;;;;11.95;9.13;;;;;;;8.08;100.00;100966.94;10118397;29;20045;-71
2020/12/20 03:50:36;;;;;;;11.50;10.05;;;;;;;8.10;100.00;100961.63;10119150;29;20412;-71
2020/12/20 03:55:38;;;;;;;14.18;10.30;;;;;;;8.19;100.00;100975.38;10118454;29;20119;-71
2020/12/20 04:00:39;;;;;;;12.15;10.63;;;;;;;8.11;100.00;100974.72;10135862;29;20442;-71
2020/12/20 04:05:58;;;;;;;13.23;9.88;;;;;;;8.12;100.00;100972.97;10133614;29;20052;-71
2020/12/20 04:11:00;;;;;;;11.77;9.32;;;;;;;8.08;100.00;100973.94;10134622;29;20048;-71
2020/12/20 04:16:10;;;;;;;11.00;9.82;;;;;;;8.04;100.00;100964.41;10117355;29;20052;-72
2020/12/20 04:21:12;;;;;;;11.68;9.65;;;;;;;8.10;100.00;100972.13;10117686;29;20048;-72
2020/12/20 04:26:15;;;;;;;11.23;9.75;;;;;;;8.17;100.00;100971.06;10102882;29;20053;-71
2020/12/20 04:31:42;;;;;;;11.18;9.98;;;;;;;8.08;100.00;100971.31;10131951;29;20060;-71
2020/12/20 04:36:46;;;;;;;15.32;11.73;;;;;;;8.08;100.00;100977.41;10102948;29;20116;-72
2020/12/20 04:42:08;;;;;;;15.63;10.80;;;;;;;8.02;100.00;100982.84;10130914;29;20062;-71
2020/12/20 04:47:10;;;;;;;14.73;10.20;;;;;;;8.02;100.00;100982.00;10121218;29;20465;-71
2020/12/20 04:52:20;;;;;;;14.30;11.30;;;;;;;7.93;100.00;100978.72;10124812;29;20056;-71
2020/12/20 04:57:23;;;;;;;16.15;12.55;;;;;;;8.04;100.00;100982.78;10141153;29;20104;-71
2020/12/20 05:02:29;;;;;;;14.40;11.68;;;;;;;7.98;100.00;100979.44;10140780;29;20056;-71
2020/12/20 05:07:32;;;;;;;13.75;11.65;;;;;;;7.87;100.00;100983.25;10124185;29;20572;-71
2020/12/20 05:12:36;;;;;;;12.90;11.53;;;;;;;7.66;100.00;100974.19;10125198;29;20560;-72
2020/12/20 05:17:44;;;;;;;17.88;13.00;;;;;;;7.63;100.00;100992.63;10123965;29;20048;-72
2020/12/20 05:22:56;;;;;;;15.55;13.73;;;;;;;7.63;100.00;101000.50;10123584;29;20564;-71
2020/12/20 05:28:09;;;;;;;15.32;12.07;;;;;;;7.59;100.00;101007.59;10123698;29;20493;-71
2020/12/20 05:33:29;;;;;;;15.35;13.27;;;;;;;7.64;100.00;101015.31;10108657;29;20083;-72
2020/12/20 05:38:39;;;;;;;12.45;10.52;;;;;;;7.75;100.00;101031.66;10122690;29;20461;-72
2020/12/20 05:43:48;;;;;;;14.88;12.35;;;;;;;7.77;100.00;101034.25;10123914;29;20139;-71
2020/12/20 05:48:49;;;;;;;17.50;12.73;;;;;;;7.79;100.00;101032.41;10122802;29;20533;-72
2020/12/20 05:53:52;;;;;;;13.07;10.40;;;;;;;7.76;100.00;101032.53;10123642;29;20147;-71
2020/12/20 05:58:53;;;;;;;14.48;11.25;;;;;;;7.71;100.00;101029.13;10138671;29;20056;-72
2020/12/20 06:03:55;;;;;;;12.60;11.05;;;;;;;7.71;100.00;101019.50;10139846;29;20043;-71
2020/12/20 06:09:00;;;;;;;12.40;10.63;;;;;;;7.70;100.00;101028.28;10138519;29;20048;-71
2020/12/20 06:14:02;;;;;;;12.13;10.80;;;;;;;7.69;100.00;101029.19;10123016;29;20115;-71
2020/12/20 06:19:08;;;;;;;13.75;11.27;;;;;;;7.64;100.00;101033.69;10142694;29;20059;-71
2020/12/20 06:24:13;;;;;;;12.10;10.65;;;;;;;7.64;100.00;101031.06;10138945;29;20052;-71
2020/12/20 06:29:19;;;;;;;14.63;11.38;;;;;;;7.61;100.00;101034.63;10138686;29;20493;-72
2020/12/20 06:34:22;;;;;;;12.35;9.57;;;;;;;7.50;100.00;101030.56;10142735;29;20056;-71
2020/12/20 06:39:36;;;;;;;12.70;10.35;;;;;;;7.46;100.00;101045.47;10141187;29;20037;-71
2020/12/20 06:44:37;;;;;;;13.50;11.13;;;;;;;7.46;100.00;101065.59;10131163;29;20100;-72
2020/12/20 06:49:40;;;;;;;14.80;11.27;;;;;;;7.51;100.00;101066.38;10136178;29;20046;-71
2020/12/20 06:54:41;;;;;;;12.70;10.18;;;;;;;7.63;100.00;101068.66;10137527;29;20049;-72
2020/12/20 06:59:46;;;;;;;13.40;11.05;;;;;;;7.58;100.00;101047.81;10137436;29;20048;-72
2020/12/20 07:04:50;;;;;;;12.13;10.82;;;;;;;7.53;100.00;101054.91;10136890;29;20115;-71
2020/12/20 07:09:51;;;;;;;11.43;10.00;;;;;;;7.63;100.00;101051.19;10136239;29;20100;-71
2020/12/20 07:14:52;;;;;;;9.88;8.90;;;;;;;7.50;100.00;101052.38;10133341;29;20100;-72
2020/12/20 07:20:19;;;;;;;14.90;11.02;;;;;;;7.49;100.00;101055.91;10135893;29;20052;-71
2020/12/20 07:25:22;;;;;;;16.05;11.95;;;;;;;7.48;100.00;101059.44;10133649;29;20060;-72
2020/12/20 07:30:23;;;;;;;14.38;11.05;;;;;;;7.37;100.00;101064.06;10136074;29;20043;-72
2020/12/20 07:35:24;;;;;;;14.40;11.65;;;;;;;7.33;100.00;101066.78;10136768;29;20061;-72
2020/12/20 07:40:25;;;;;;;14.82;12.00;;;;;;;7.20;100.00;101076.69;10118496;29;20049;-71
2020/12/20 07:45:26;;;;;;;14.90;11.40;;;;;;;7.20;100.00;101093.28;10135952;29;20044;-71
2020/12/20 07:50:28;;;;;;;13.15;9.15;;;;;;;7.39;100.00;101093.72;10134179;29;20489;-72
2020/12/20 07:55:31;;;;;;;12.32;9.52;;;;;;;7.40;100.00;101099.81;10136185;29;20052;-71
2020/12/20 08:00:33;;;;;;;10.88;9.73;;;;;;;7.46;100.00;101115.41;10135362;29;20056;-72
2020/12/20 08:05:34;;;;;;;13.18;10.38;;;;;;;7.31;100.00;101116.63;10135148;29;20049;-71
2020/12/20 08:10:35;;;;;;;14.95;11.98;;;;;;;7.32;100.00;101113.09;10134992;29;20049;-71
2020/12/20 08:15:36;;;;;;;16.27;12.23;;;;;;;7.31;100.00;101121.88;10118232;29;20104;-71
2020/12/20 08:20:37;;;;;;;15.23;11.95;;;;;;;7.45;100.00;101127.66;10135523;29;20088;-71
2020/12/20 08:25:38;;;;;;;13.60;10.75;;;;;;;7.38;100.00;101117.34;10143558;29;20114;-71
2020/12/20 08:30:39;;;;;;;13.38;10.98;;;;;;;7.47;100.00;101131.09;10142736;29;20092;-71
2020/12/20 08:35:41;;;;;;;16.35;12.98;;;;;;;7.62;100.00;101142.97;10139556;29;20067;-70
2020/12/20 08:40:42;;;;;;;12.45;9.52;;;;;;;7.65;100.00;101129.81;10137724;29;20468;-70
2020/12/20 08:45:45;;;;;;;15.65;9.15;;;;;;;7.91;100.00;101140.53;10139680;29;20052;-70
2020/12/20 08:50:55;;;;;;;37.03;24.02;;;;;;;8.14;100.00;101120.72;10139807;29;20045;-70
2020/12/20 08:56:06;;;;;;;15.38;10.15;;;;;;;8.33;100.00;101107.09;10138765;29;20036;-70
2020/12/20 09:01:14;;;;;;;11.40;7.82;;;;;;;8.52;100.00;101099.59;10137630;29;20481;-70
2020/12/20 09:06:15;;;;;;;17.50;12.02;;;;;;;8.64;100.00;101090.50;10140210;29;20485;-70
2020/12/20 09:11:24;;;;;;;15.10;9.20;;;;;;;8.60;100.00;101076.59;10137654;29;20044;-70
2020/12/20 09:16:39;;;;;;;11.98;8.55;;;;;;;8.53;100.00;101075.06;10138553;29;20127;-70
2020/12/20 09:21:41;;;;;;;12.98;8.27;;;;;;;8.44;100.00;101067.44;10138687;29;20044;-70
2020/12/20 09:26:57;;;;;;;10.68;7.20;;;;;;;8.54;100.00;101078.53;10135874;29;20104;-70
2020/12/20 09:32:00;;;;;;;10.02;6.45;;;;;;;8.91;100.00;101086.22;10136486;29;20056;-70
2020/12/20 09:37:03;;;;;;;12.88;6.13;;;;;;;9.33;100.00;101094.56;10136755;29;20044;-70
2020/12/20 09:42:04;;;;;;;8.90;5.88;;;;;;;9.37;100.00;101085.69;10139505;29;20052;-70
2020/12/20 09:47:05;;;;;;;15.70;6.93;;;;;;;9.31;100.00;101060.41;10139084;29;20085;-70
2020/12/20 09:52:06;;;;;;;16.27;8.80;;;;;;;9.44;100.00;101067.03;10139798;29;20485;-70
2020/12/20 09:57:08;;;;;;;13.75;9.60;;;;;;;9.59;100.00;101070.91;10137680;29;20047;-69
2020/12/20 10:02:09;;;;;;;10.50;5.13;;;;;;;9.45;100.00;101068.75;10138596;29;20040;-70
2020/12/20 10:07:10;;;;;;;11.80;6.20;;;;;;;9.50;100.00;101068.59;10137738;29;20068;-70
2020/12/20 10:12:11;;;;;;;12.07;5.47;;;;;;;9.47;100.00;101061.66;10138032;29;20548;-70
2020/12/20 10:17:12;;;;;;;9.98;4.68;;;;;;;9.45;100.00;101071.38;10137408;29;20127;-70
2020/12/20 10:22:13;;;;;;;10.52;4.78;;;;;;;9.43;100.00;101069.69;10137927;29;20044;-70
2020/12/20 10:27:14;;;;;;;10.55;5.60;;;;;;;9.55;100.00;101064.03;10136509;29;20048;-70
2020/12/20 10:32:15;;;;;;;10.00;5.38;;;;;;;9.69;100.00;101050.44;10129304;29;20057;-70
2020/12/20 10:37:16;;;;;;;8.85;5.45;;;;;;;9.84;100.00;101056.03;10144873;29;20055;-70
2020/12/20 10:42:18;;;;;;;10.77;4.43;;;;;;;9.85;100.00;101046.38;10128464;29;20393;-70
2020/12/20 10:47:22;;;;;;;7.55;4.32;;;;;;;9.79;100.00;101043.97;10136642;29;20052;-70
2020/12/20 10:52:23;;;;;;;10.98;4.95;;;;;;;9.78;100.00;101048.34;10137195;29;20434;-69
2020/12/20 10:57:24;;;;;;;8.80;4.03;;;;;;;9.89;100.00;101047.97;10133706;29;20135;-69
2020/12/20 11:02:25;;;;;;;9.32;3.85;;;;;;;9.95;100.00;101036.38;10136664;29;20047;-69
2020/12/20 11:07:27;;;;;;;8.48;4.40;;;;;;;10.00;100.00;101029.19;10120148;29;20037;-69
2020/12/20 11:12:28;;;;;;;10.48;5.40;;;;;;;10.04;100.00;101025.53;10135795;29;20053;-68
2020/12/20 11:17:29;;;;;;;11.90;6.43;;;;;;;9.80;100.00;101008.81;10136183;29;20055;-69
2020/12/20 11:22:30;;;;;;;10.63;6.15;;;;;;;9.84;100.00;101021.81;10135404;29;20049;-69
2020/12/20 11:27:31;;;;;;;7.97;5.50;;;;;;;9.87;100.00;101021.69;10119317;29;20060;-69
2020/12/20 11:32:34;;;;;;;12.23;6.53;;;;;;;9.82;100.00;101022.78;10134058;29;20064;-67
2020/12/20 11:37:35;;;;;;;11.23;6.40;;;;;;;9.87;100.00;101020.88;10121122;29;20044;-68
2020/12/20 11:42:36;;;;;;;10.75;6.43;;;;;;;9.87;100.00;101023.50;10132167;29;20041;-67
2020/12/20 11:47:39;;;;;;;10.02;6.72;;;;;;;9.74;100.00;101014.28;10133392;29;20450;-68
2020/12/20 11:52:40;;;;;;;9.43;5.82;;;;;;;9.74;100.00;101017.78;10132254;29;20056;-68
2020/12/20 11:57:41;;;;;;;11.98;6.50;;;;;;;9.89;100.00;101022.50;10131232;29;20179;-67
2020/12/20 12:02:42;;;;;;;14.18;7.78;;;;;;;10.05;100.00;101009.66;10131977;29;20056;-68
2020/12/20 12:07:43;;;;;;;13.10;7.13;;;;;;;10.08;100.00;101003.44;10121701;29;20077;-69
2020/12/20 12:12:44;;;;;;;16.58;7.72;;;;;;;10.25;100.00;101009.84;10128752;29;20383;-68
2020/12/20 12:17:45;;;;;;;11.52;5.65;;;;;;;10.46;100.00;101010.81;10132541;29;20108;-67
2020/12/20 12:22:47;;;;;;;9.70;5.07;;;;;;;10.80;100.00;101020.09;10131814;29;20109;-68
2020/12/20 12:27:48;;;;;;;9.10;5.00;;;;;;;10.74;100.00;101015.91;10130847;29;20041;-67
2020/12/20 12:32:52;;;;;;;13.52;6.70;;;;;;;10.59;100.00;100996.28;10132275;29;20482;-67
2020/12/20 12:37:53;;;;;;;9.30;5.22;;;;;;;10.62;100.00;100993.56;10131680;29;20044;-67
2020/12/20 12:42:54;;;;;;;11.13;5.47;;;;;;;10.51;100.00;100987.81;10130845;29;20124;-68
2020/12/20 12:47:56;;;;;;;11.27;5.20;;;;;;;10.65;100.00;100998.69;10130790;29;20053;-68
2020/12/20 12:52:57;;;;;;;11.13;6.50;;;;;;;10.85;100.00;100994.44;10132171;29;20060;-69
2020/12/20 12:57:58;;;;;;;7.32;4.57;;;;;;;11.10;100.00;100989.03;10131075;29;20462;-68
2020/12/20 13:02:59;;;;;;;12.32;5.18;;;;;;;11.19;100.00;100981.63;10131683;29;20052;-68
2020/12/20 13:08:00;;;;;;;19.42;10.93;;;;;;;11.29;100.00;100966.28;10134230;29;20053;-68
2020/12/20 13:13:01;;;;;;;10.63;4.80;;;;;;;11.21;100.00;100971.88;10136491;29;20493;-68
2020/12/20 13:18:03;;;;;;;10.52;4.88;;;;;;;11.16;100.00;100965.06;10135506;29;20044;-68
2020/12/20 13:23:04;;;;;;;10.00;6.00;;;;;;;10.91;100.00;100981.84;10136781;29;20045;-68
2020/12/20 13:28:05;;;;;;;10.25;3.65;;;;;;;10.89;100.00;100967.88;10126374;29;20056;-68
2020/12/20 13:33:07;;;;;;;9.00;4.05;;;;;;;10.83;100.00;100969.91;10137579;29;20096;-67
2020/12/20 13:38:08;;;;;;;13.23;4.07;;;;;;;11.07;100.00;100971.56;10135836;29;20418;-67
2020/12/20 13:43:12;;;;;;;8.55;3.70;;;;;;;11.07;100.00;100976.81;10137546;29;20049;-67
2020/12/20 13:48:14;;;;;;;10.32;3.90;;;;;;;10.86;100.00;100959.25;10136530;29;20052;-67
2020/12/20 13:53:15;;;;;;;10.80;3.97;;;;;;;10.71;100.00;100957.22;10136725;29;20104;-68
2020/12/20 13:58:18;;;;;;;12.48;4.50;;;;;;;10.73;100.00;100976.44;10137760;29;20044;-68
2020/12/20 14:03:19;;;;;;;8.32;4.03;;;;;;;10.55;100.00;100989.41;10136067;29;20048;-69
2020/12/20 14:08:20;;;;;;;10.05;4.38;;;;;;;10.59;100.00;100990.16;10137156;29;20076;-68
2020/12/20 14:13:21;;;;;;;23.95;14.32;;;;;;;10.47;100.00;100990.63;10124494;29;20656;-68
2020/12/20 14:18:23;;;;;;;8.43;4.82;;;;;;;10.57;100.00;101002.53;10134743;29;20060;-68
2020/12/20 14:23:24;;;;;;;12.85;6.10;;;;;;;10.58;100.00;101004.25;10135578;29;20060;-68
2020/12/20 14:28:25;;;;;;;8.75;5.20;;;;;;;10.49;100.00;100994.91;10134194;29;20048;-68
2020/12/20 14:33:26;;;;;;;8.27;5.03;;;;;;;10.17;100.00;100990.84;10111426;29;20117;-69
2020/12/20 14:38:27;;;;;;;12.55;6.22;;;;;;;9.77;100.00;100986.13;10133565;29;20044;-69
2020/12/20 14:43:28;;;;;;;9.00;5.47;;;;;;;9.44;100.00;101003.03;10137549;29;20045;-69
2020/12/20 14:48:31;;;;;;;9.90;5.97;;;;;;;9.28;100.00;101007.09;10145854;29;20051;-69
2020/12/20 14:53:33;;;;;;;9.70;4.90;;;;;;;8.99;100.00;101022.00;10135893;29;20066;-69
2020/12/20 14:58:34;;;;;;;15.88;7.20;;;;;;;8.99;100.00;101024.63;10133358;29;20382;-68
2020/12/20 15:03:36;;;;;;;12.55;5.90;;;;;;;9.02;100.00;101029.81;10132153;29;20051;-69
2020/12/20 15:08:38;;;;;;;9.38;4.25;;;;;;;9.09;100.00;101027.84;10134285;29;20429;-69
2020/12/20 15:13:39;;;;;;;6.88;3.75;;;;;;;9.00;100.00;101013.22;10136291;29;20508;-69
2020/12/20 15:18:41;;;;;;;8.50;4.22;;;;;;;9.05;100.00;101011.28;10157364;29;20052;-69
2020/12/20 15:23:46;;;;;;;9.35;4.82;;;;;;;9.06;100.00;101012.16;10137711;29;20044;-69
2020/12/20 15:28:47;;;;;;;14.20;6.55;;;;;;;9.00;100.00;101002.69;10135833;29;20048;-69
2020/12/20 15:33:48;;;;;;;15.40;6.32;;;;;;;8.83;100.00;100983.13;10134321;29;20052;-69
2020/12/20 15:38:51;;;;;;;11.90;4.30;;;;;;;8.71;100.00;100994.84;10134648;29;20044;-69
2020/12/20 15:43:52;;;;;;;8.13;3.88;;;;;;;8.57;100.00;100990.03;10135309;29;20051;-69
2020/12/20 15:48:54;;;;;;;7.03;3.65;;;;;;;8.48;100.00;100999.94;10135097;29;20079;-69
2020/12/20 15:53:55;;;;;;;8.10;3.92;;;;;;;8.53;100.00;101011.19;10135061;29;20049;-69
2020/12/20 15:58:56;;;;;;;8.02;3.88;;;;;;;8.51;100.00;101002.47;10134503;29;20056;-69
2020/12/20 16:03:57;;;;;;;7.55;3.70;;;;;;;8.44;100.00;101008.81;10133909;29;20056;-69
2020/12/20 16:08:58;;;;;;;13.02;4.20;;;;;;;8.26;100.00;101008.41;10134594;29;20041;-69
2020/12/20 16:14:00;;;;;;;9.30;3.83;;;;;;;8.02;100.00;101013.47;10134829;29;20053;-69
2020/12/20 16:19:01;;;;;;;8.30;3.70;;;;;;;8.01;100.00;101028.34;10117721;29;20056;-69
2020/12/20 16:24:02;;;;;;;11.93;4.50;;;;;;;8.15;100.00;101054.22;10116790;29;20053;-69
2020/12/20 16:29:03;;;;;;;12.25;4.65;;;;;;;8.39;100.00;101058.81;10134083;29;20092;-69
2020/12/20 16:34:05;;;;;;;12.73;5.13;;;;;;;8.44;100.00;101059.56;10132528;29;20052;-69
2020/12/20 16:39:06;;;;;;;10.40;4.65;;;;;;;8.33;100.00;101046.72;10126665;29;20041;-71
2020/12/20 16:44:08;;;;;;;16.27;7.93;;;;;;;8.35;100.00;101063.31;10137719;29;20045;-70
2020/12/20 16:49:09;;;;;;;13.18;6.93;;;;;;;8.63;100.00;101075.63;10141698;29;20409;-71
2020/12/20 16:54:13;;;;;;;12.18;6.97;;;;;;;8.57;100.00;101070.56;10140915;29;20044;-71
2020/12/20 16:59:15;;;;;;;13.90;6.97;;;;;;;8.53;100.00;101066.31;10140588;29;20049;-71
2020/12/20 17:04:36;;;;;;;10.05;5.15;;;;;;;8.54;100.00;101070.63;10135728;29;20072;-70
2020/12/20 17:09:44;;;;;;;8.63;4.28;;;;;;;8.59;100.00;101077.50;10139996;29;20044;-70
2020/12/20 17:14:50;;;;;;;8.95;4.60;;;;;;;8.53;100.00;101069.81;10124607;29;20052;-70
2020/12/20 17:19:56;;;;;;;13.68;5.30;;;;;;;8.39;100.00;101064.06;10148835;29;20068;-70
2020/12/20 17:25:03;;;;;;;11.98;5.75;;;;;;;8.00;100.00;101064.22;10140505;29;20073;-71
2020/12/20 17:30:09;;;;;;;11.65;4.03;;;;;;;8.25;100.00;101079.31;10140748;29;20397;-70
2020/12/20 17:35:15;;;;;;;9.05;4.25;;;;;;;8.39;100.00;101090.31;10123750;29;20521;-70
2020/12/20 17:40:21;;;;;;;9.68;3.95;;;;;;;8.53;100.00;101080.31;10139847;29;20044;-70
2020/12/20 17:45:28;;;;;;;11.50;3.70;;;;;;;8.74;100.00;101081.44;10139713;29;20064;-70
2020/12/20 17:50:34;;;;;;;10.02;3.65;;;;;;;8.73;100.00;101072.72;10140182;29;20498;-70
2020/12/20 17:55:40;;;;;;;10.65;3.60;;;;;;;8.84;100.00;101079.41;10137663;29;20043;-70
2020/12/20 18:00:42;;;;;;;13.73;3.30;;;;;;;8.73;100.00;101077.09;10139904;29;20055;-71
2020/12/20 18:05:44;;;;;;;10.50;3.10;;;;;;;8.74;100.00;101084.94;10134584;29;20048;-71
2020/12/20 18:10:46;;;;;;;8.02;3.22;;;;;;;8.67;100.00;101090.41;10139205;29;20096;-70
2020/12/20 18:15:47;;;;;;;10.73;3.72;;;;;;;8.73;100.00;101098.97;10138627;29;20049;-71
2020/12/20 18:20:48;;;;;;;13.55;3.28;;;;;;;8.87;100.00;101097.72;10134123;29;20056;-71
2020/12/20 18:25:50;;;;;;;11.82;3.33;;;;;;;8.94;100.00;101108.00;10155494;29;20051;-71
2020/12/20 18:30:51;;;;;;;11.75;3.53;;;;;;;8.74;100.00;101110.34;10138730;29;20053;-71
2020/12/20 18:35:52;;;;;;;11.82;3.75;;;;;;;9.04;100.00;101140.97;10136683;29;20056;-71
2020/12/20 18:40:56;;;;;;;11.45;3.80;;;;;;;8.92;100.00;101138.72;10137337;29;20045;-71
2020/12/20 18:46:05;;;;;;;9.55;3.92;;;;;;;8.71;100.00;101144.56;10135091;29;20560;-71
2020/12/20 18:51:06;;;;;;;11.23;3.10;;;;;;;8.74;100.00;101152.38;10136294;29;20045;-71
2020/12/20 18:56:08;;;;;;;8.25;4.35;;;;;;;8.84;100.00;101176.63;10137816;29;20052;-71
2020/12/20 19:01:09;;;;;;;7.22;2.83;;;;;;;8.81;100.00;101167.06;10136781;29;20036;-70
2020/12/20 19:06:11;;;;;;;8.82;2.72;;;;;;;8.48;100.00;101152.22;10121640;29;20139;-71
2020/12/20 19:11:33;;;;;;;10.13;2.80;;;;;;;8.22;100.00;101153.72;10136956;29;20092;-70
2020/12/20 19:16:36;;;;;;;9.02;3.13;;;;;;;8.21;100.00;101162.50;10135671;29;20044;-70
2020/12/20 19:21:37;;;;;;;10.10;3.25;;;;;;;8.03;100.00;101157.75;10120448;29;20040;-70
2020/12/20 19:26:40;;;;;;;5.93;3.17;;;;;;;7.83;100.00;101158.22;10136117;29;20048;-70
2020/12/20 19:31:44;;;;;;;6.40;3.42;;;;;;;7.94;100.00;101176.34;10119528;29;20076;-71
2020/12/20 19:36:48;;;;;;;7.90;3.58;;;;;;;7.93;100.00;101183.34;10118977;29;20048;-71
2020/12/20 19:41:51;;;;;;;9.05;3.88;;;;;;;7.99;100.00;101183.19;10135493;29;20049;-71
2020/12/20 19:46:53;;;;;;;7.38;3.95;;;;;;;7.95;100.00;101184.16;10135696;29;20052;-70
2020/12/20 19:51:54;;;;;;;7.40;3.00;;;;;;;7.82;100.00;101194.97;10118203;29;20481;-70
2020/12/20 19:56:56;;;;;;;6.90;2.85;;;;;;;7.35;100.00;101198.69;10133725;29;20047;-70
2020/12/20 20:01:57;;;;;;;11.13;2.95;;;;;;;7.70;100.00;101237.25;10133366;29;20457;-70
2020/12/20 20:06:58;;;;;;;9.23;3.40;;;;;;;7.92;100.00;101241.97;10132602;29;20044;-71
2020/12/20 20:11:59;;;;;;;10.55;3.88;;;;;;;7.81;100.00;101230.84;10133756;29;20051;-70
2020/12/20 20:17:00;;;;;;;8.20;3.20;;;;;;;7.71;100.00;101224.06;10121791;29;20045;-71
2020/12/20 20:22:03;;;;;;;12.18;3.47;;;;;;;7.73;100.00;101235.41;10091971;29;20481;-70
2020/12/20 20:27:04;;;;;;;11.93;4.15;;;;;;;7.50;100.00;101214.94;10142382;29;20493;-71
2020/12/20 20:32:06;;;;;;;8.32;3.33;;;;;;;7.30;100.00;101214.50;10141377;29;20480;-71
2020/12/20 20:37:07;;;;;;;8.43;3.33;;;;;;;7.51;100.00;101234.16;10140755;29;20041;-70
2020/12/20 20:42:08;;;;;;;8.20;3.58;;;;;;;7.48;100.00;101223.72;10141394;29;20426;-71
2020/12/20 20:47:10;;;;;;;13.55;4.38;;;;;;;7.43;100.00;101225.59;10141385;29;20068;-71
2020/12/20 20:52:11;;;;;;;10.10;4.03;;;;;;;7.41;100.00;101223.00;10142289;29;20105;-70
2020/12/20 20:57:12;;;;;;;12.00;4.13;;;;;;;7.33;100.00;101216.19;10140837;29;20044;-70
2020/12/20 21:02:16;;;;;;;12.25;4.05;;;;;;;7.29;100.00;101223.25;10124898;29;20446;-71
2020/12/20 21:07:18;;;;;;;9.57;3.63;;;;;;;7.40;100.00;101233.50;10141455;29;20505;-71
2020/12/20 21:12:19;;;;;;;11.85;3.40;;;;;;;7.41;100.00;101230.00;10140915;29;20044;-71
2020/12/20 21:17:20;;;;;;;13.93;5.40;;;;;;;7.43;100.00;101236.94;10123195;29;20540;-71
2020/12/20 21:22:21;;;;;;;14.75;4.93;;;;;;;7.40;100.00;101228.25;10123978;29;20045;-71
2020/12/20 21:27:23;;;;;;;10.52;3.33;;;;;;;7.45;100.00;101214.16;10140824;29;20759;-71
2020/12/20 21:32:27;;;;;;;9.40;3.38;;;;;;;7.51;100.00;101224.53;10140458;29;20083;-71
2020/12/20 21:37:28;;;;;;;13.40;4.13;;;;;;;7.60;100.00;101237.44;10139170;29;20051;-71
2020/12/20 21:42:29;;;;;;;10.95;4.10;;;;;;;7.55;100.00;101230.56;10139349;29;20045;-71
2020/12/20 21:47:31;;;;;;;11.40;3.55;;;;;;;7.44;100.00;101222.06;10138648;29;20441;-71
2020/12/20 21:52:32;;;;;;;11.50;3.85;;;;;;;7.48;100.00;101228.97;10136277;29;20048;-71
2020/12/20 21:57:34;;;;;;;10.88;3.15;;;;;;;7.33;100.00;101224.06;10140234;29;20048;-71
2020/12/20 22:02:36;;;;;;;12.40;4.03;;;;;;;7.28;100.00;101233.78;10114607;29;20052;-71
2020/12/20 22:07:38;;;;;;;13.90;3.70;;;;;;;7.22;100.00;101225.13;10131124;29;20586;-71
2020/12/20 22:12:39;;;;;;;9.23;3.55;;;;;;;7.13;100.00;101232.31;10116503;29;20041;-71
2020/12/20 22:17:40;;;;;;;9.68;4.07;;;;;;;7.00;100.00;101242.19;10145575;29;20506;-71
2020/12/20 22:22:41;;;;;;;9.20;3.50;;;;;;;6.84;100.00;101249.47;10094478;29;20047;-71
2020/12/20 22:27:43;;;;;;;10.75;3.30;;;;;;;6.74;100.00;101254.91;10134853;29;20096;-71
2020/12/20 22:32:44;;;;;;;12.02;5.22;;;;;;;6.72;100.00;101268.00;10121032;29;20067;-71
2020/12/20 22:37:45;;;;;;;10.18;3.60;;;;;;;6.75;100.00;101280.19;10137652;29;20402;-71
2020/12/20 22:42:46;;;;;;;15.73;4.32;;;;;;;6.53;100.00;101274.44;10136770;29;20044;-70
2020/12/20 22:47:48;;;;;;;8.95;3.28;;;;;;;6.47;100.00;101275.44;10151355;29;20413;-71
2020/12/20 22:52:50;;;;;;;11.07;3.47;;;;;;;6.42;100.00;101276.41;10137329;29;20049;-71